Time;durP1;ratioP1;P1;durP2;ratioP2;P2;SDS_P1;SDS_P2;PMS_P1;PMS_P2;Temp;Humidity;BMP_temperature;BMP_pressure;BME280_temperature;BME280_humidity;BME280_pressure;Samples;Min_cycle;Max_cycle;Signal;HPM_P1;HPM_P2
2023/10/19 00:00:49;;;;;;;;;1.00;1.00;;;;;17.62;84.69;101209.53;146601;569;49016;-69
2023/10/19 00:03:49;;;;;;;;;0.00;0.00;;;;;17.58;84.84;101202.41;146608;699;46021;-68
2023/10/19 00:06:44;;;;;;;;;0.00;0.00;;;;;17.53;84.96;101194.41;146605;573;46016;-70
2023/10/19 00:09:45;;;;;;;;;0.00;0.00;;;;;17.48;85.63;101196.00;146610;597;45020;-70
2023/10/19 00:12:43;;;;;;;;;0.00;0.00;;;;;17.43;85.55;101192.34;146603;642;46016;-69
2023/10/19 00:15:51;;;;;;;;;1.00;1.00;;;;;17.40;85.50;101190.50;146609;600;47010;-69
2023/10/19 00:18:46;;;;;;;;;0.00;0.00;;;;;17.37;85.45;101182.56;146604;597;47916;-69
2023/10/19 00:21:50;;;;;;;;;1.67;0.67;;;;;17.34;85.61;101179.84;146610;585;46010;-67
2023/10/19 00:24:53;;;;;;;;;1.67;0.33;;;;;17.33;85.64;101183.31;146602;583;47939;-66
2023/10/19 00:27:52;;;;;;;;;1.00;1.00;;;;;17.35;85.55;101188.59;146608;601;46020;-67
2023/10/19 00:31:03;;;;;;;;;3.00;0.33;;;;;17.37;85.74;101182.56;146606;582;46016;-68
2023/10/19 00:34:13;;;;;;;;;;;;;;;;;;;;;
2023/10/19 00:37:10;;;;;;;;;2.00;1.00;;;;;17.49;85.79;101175.06;146605;570;46913;-69
2023/10/19 00:40:15;;;;;;;;;0.33;0.00;;;;;17.48;84.77;101175.91;146606;612;47010;-69
2023/10/19 00:43:11;;;;;;;;;0.00;0.00;;;;;17.47;84.76;101171.50;146605;565;46016;-68
2023/10/19 00:46:09;;;;;;;;;2.00;0.33;;;;;17.49;84.59;101168.94;146608;627;46010;-68
2023/10/19 00:49:14;;;;;;;;;0.67;0.67;;;;;17.50;84.90;101166.34;146604;668;47016;-69
2023/10/19 00:52:19;;;;;;;;;1.00;1.00;;;;;17.49;84.45;101161.97;146607;569;46020;-69
2023/10/19 00:55:20;;;;;;;;;1.00;1.00;;;;;17.47;84.54;101158.38;146607;564;47013;-68
2023/10/19 00:58:22;;;;;;;;;1.33;0.67;;;;;17.46;84.43;101153.13;146607;611;46020;-69
2023/10/19 01:01:36;;;;;;;;;1.00;0.00;;;;;16.14;84.02;100926.41;146603;566;46017;-70
2023/10/19 01:04:35;;;;;;;;;0.00;0.00;;;;;17.39;84.63;101156.41;146610;566;46020;-66
2023/10/19 01:07:34;;;;;;;;;0.33;0.33;;;;;17.31;84.47;101141.31;146606;613;47016;-68
2023/10/19 01:10:29;;;;;;;;;1.33;1.33;;;;;17.27;84.39;101146.44;146609;622;46010;-68
2023/10/19 01:13:34;;;;;;;;;0.00;0.00;;;;;17.17;85.00;101141.75;146605;632;46016;-68
2023/10/19 01:16:39;;;;;;;;;2.00;1.00;;;;;17.07;84.79;101138.84;146619;595;46033;-68
2023/10/19 01:19:39;;;;;;;;;0.00;0.00;;;;;16.99;84.45;101135.09;146629;566;46014;-69
2023/10/19 01:22:35;;;;;;;;;0.00;0.00;;;;;16.95;84.56;101124.47;146631;700;45020;-68
2023/10/19 01:29:13;;;;;;;;;1.67;0.67;;;;;16.83;84.37;101131.09;146619;592;46020;-69
2023/10/19 01:32:11;;;;;;;;;2.67;0.00;;;;;16.80;84.44;101130.09;146627;564;46012;-70
2023/10/19 01:35:08;;;;;;;;;1.00;0.33;;;;;16.74;84.60;101119.41;146628;619;45020;-68
2023/10/19 01:38:04;;;;;;;;;0.33;0.00;;;;;16.67;83.94;101122.66;146625;580;47015;-68
2023/10/19 01:41:02;;;;;;;;;0.67;0.67;;;;;16.55;83.59;101121.41;146629;572;45020;-67
2023/10/19 01:44:04;;;;;;;;;0.00;0.00;;;;;16.50;83.20;101119.47;146624;569;45012;-67
2023/10/19 01:47:05;;;;;;;;;0.00;0.00;;;;;16.44;83.59;101119.25;146630;624;45011;-68
2023/10/19 01:50:06;;;;;;;;;1.00;0.67;;;;;16.40;83.12;101123.50;146627;580;45016;-68
2023/10/19 01:53:04;;;;;;;;;1.00;0.00;;;;;16.32;83.17;101122.34;146626;640;46011;-68
2023/10/19 01:56:05;;;;;;;;;0.33;0.33;;;;;16.27;83.04;101129.16;146628;563;45016;-69
2023/10/19 01:59:01;;;;;;;;;0.00;0.00;;;;;16.21;83.18;101128.97;146629;576;45918;-70
2023/10/19 02:01:54;;;;;;;;;0.00;0.00;;;;;16.20;83.67;101128.06;146629;626;46012;-69
2023/10/19 02:04:59;;;;;;;;;0.00;0.00;;;;;16.23;83.28;101135.09;146630;592;46010;-68
2023/10/19 02:07:54;;;;;;;;;0.00;0.00;;;;;16.28;84.23;101139.69;146629;565;45016;-68
2023/10/19 02:10:54;;;;;;;;;1.00;0.00;;;;;16.31;83.19;101136.28;146629;554;46020;-67
2023/10/19 02:13:57;;;;;;;;;0.67;0.00;;;;;16.35;83.74;101140.78;146629;594;45012;-68
2023/10/19 02:17:03;;;;;;;;;3.00;1.00;;;;;16.35;83.03;101141.69;146628;591;45021;-67
2023/10/19 02:20:17;;;;;;;;;2.67;1.00;;;;;16.39;82.86;101150.53;146622;584;46016;-69
2023/10/19 02:23:09;;;;;;;;;0.00;0.00;;;;;16.44;83.49;101150.66;146623;599;45020;-71
2023/10/19 02:26:03;;;;;;;;;1.00;1.00;;;;;16.49;83.33;101154.34;146626;564;46016;-68
2023/10/19 02:29:03;;;;;;;;;0.00;0.00;;;;;16.53;83.65;101161.47;146628;632;46010;-69
2023/10/19 02:32:05;;;;;;;;;0.00;0.00;;;;;16.58;83.39;101152.94;146628;575;45012;-68
2023/10/19 02:35:07;;;;;;;;;0.33;0.33;;;;;16.62;82.92;101157.41;146627;593;46010;-69
2023/10/19 02:38:06;;;;;;;;;0.00;0.00;;;;;16.60;82.50;101163.44;146624;571;45016;-68
2023/10/19 02:41:03;;;;;;;;;2.00;1.00;;;;;16.60;82.72;101160.81;146626;622;45020;-67
2023/10/19 02:44:29;;;;;;;;;;;;;;;;;;;;;
2023/10/19 02:47:30;;;;;;;;;1.00;0.00;;;;;16.58;82.79;101160.78;146626;578;46010;-69
2023/10/19 02:50:29;;;;;;;;;0.00;0.00;;;;;16.58;82.87;101158.16;146626;636;45016;-70
2023/10/19 02:53:28;;;;;;;;;1.00;0.00;;;;;16.57;82.80;101150.25;146628;594;46010;-69
2023/10/19 02:56:36;;;;;;;;;2.00;0.67;;;;;15.37;82.94;100939.50;146626;621;45916;-70
2023/10/19 02:59:29;;;;;;;;;1.00;1.00;;;;;16.62;83.92;101143.44;146626;591;45020;-69
2023/10/19 03:02:25;;;;;;;;;1.67;1.00;;;;;16.66;83.00;101147.03;146624;595;45040;-69
2023/10/19 03:05:27;;;;;;;;;1.00;1.00;;;;;16.72;83.09;101149.88;146627;578;46010;-68
2023/10/19 03:08:24;;;;;;;;;2.00;0.33;;;;;16.75;83.45;101152.59;146628;624;45012;-69
2023/10/19 03:11:17;;;;;;;;;2.33;1.00;;;;;16.81;83.60;101158.06;146631;617;46010;-68
2023/10/19 03:14:19;;;;;;;;;0.67;0.00;;;;;16.86;83.95;101148.63;146624;725;46015;-69
2023/10/19 03:17:12;;;;;;;;;1.33;1.33;;;;;16.93;84.29;101142.75;146607;595;46020;-67
2023/10/19 03:20:25;;;;;;;;;;;;;;;;;;;;;
2023/10/19 03:23:20;;;;;;;;;1.00;1.00;;;;;17.01;83.77;101151.75;146607;626;46021;-67
2023/10/19 03:29:38;;;;;;;;;2.00;1.00;;;;;17.02;82.83;101143.03;146607;638;46020;-70
2023/10/19 03:32:41;;;;;;;;;1.67;1.00;;;;;17.04;83.57;101141.38;146606;584;47012;-70
2023/10/19 03:35:42;;;;;;;;;2.00;2.00;;;;;17.06;83.04;101137.03;146608;575;47010;-70
2023/10/19 03:39:00;;;;;;;;;1.67;1.00;;;;;17.09;83.49;101131.03;146606;604;47032;-68
2023/10/19 03:42:01;;;;;;;;;1.33;1.33;;;;;17.13;83.37;101134.63;146609;561;46014;-68
2023/10/19 03:45:05;;;;;;;;;0.67;0.00;;;;;17.14;83.02;101132.06;146605;592;46017;-68
2023/10/19 03:48:00;;;;;;;;;2.33;1.67;;;;;17.15;83.87;101123.34;146609;588;46020;-68
2023/10/19 03:50:59;;;;;;;;;2.00;1.00;;;;;17.17;83.16;101126.03;146604;594;46915;-69
2023/10/19 03:53:58;;;;;;;;;2.67;1.67;;;;;17.20;83.24;101127.00;146608;668;46010;-70
2023/10/19 03:57:29;;;;;;;;;;;;;;;;;;;;;
2023/10/19 04:00:33;;;;;;;;;2.00;2.00;;;;;17.23;82.49;101132.34;146608;583;46020;-71
2023/10/19 04:03:30;;;;;;;;;3.33;2.67;;;;;17.23;82.80;101129.72;146605;604;46016;-70
2023/10/19 04:06:49;;;;;;;;;4.00;3.00;;;;;15.94;82.46;100903.09;146607;570;47020;-69
2023/10/19 04:13:09;;;;;;;;;4.00;3.00;;;;;17.28;82.90;101133.34;146605;685;46020;-70
2023/10/19 04:16:01;;;;;;;;;2.00;2.00;;;;;17.28;82.43;101128.13;146606;607;46012;-69
2023/10/19 04:19:00;;;;;;;;;1.67;1.67;;;;;17.30;82.21;101130.81;146608;625;47010;-70
2023/10/19 04:22:23;;;;;;;;;3.00;2.33;;;;;16.20;81.82;100941.41;146604;594;46916;-69
2023/10/19 04:25:25;;;;;;;;;2.67;2.00;;;;;17.29;82.77;101131.66;146608;563;46010;-66
2023/10/19 04:28:33;;;;;;;;;2.33;2.33;;;;;17.26;82.73;101131.56;146607;595;45025;-66
2023/10/19 04:31:30;;;;;;;;;5.00;5.00;;;;;17.23;82.98;101134.09;146607;602;46021;-68
2023/10/19 04:34:33;;;;;;;;;4.67;4.67;;;;;17.21;83.47;101135.75;146607;596;47012;-68
2023/10/19 04:37:42;;;;;;;;;4.33;4.33;;;;;15.95;82.82;100930.16;146610;574;46010;-65
2023/10/19 04:40:40;;;;;;;;;7.00;4.00;;;;;17.14;83.36;101131.19;146608;732;46014;-69
2023/10/19 04:43:34;;;;;;;;;5.00;5.00;;;;;17.11;84.12;101128.47;146610;605;46015;-70
2023/10/19 04:46:42;;;;;;;;;5.33;3.00;;;;;17.07;84.39;101125.75;146603;633;46014;-69
2023/10/19 04:49:45;;;;;;;;;6.67;4.00;;;;;17.00;84.35;101123.75;146608;593;46020;-68
2023/10/19 04:52:41;;;;;;;;;4.67;3.67;;;;;16.99;84.79;101129.84;146608;669;46012;-68
2023/10/19 04:55:39;;;;;;;;;3.33;3.33;;;;;16.95;84.74;101119.25;146608;622;46010;-68
2023/10/19 04:58:40;;;;;;;;;4.00;4.00;;;;;16.94;84.93;101126.19;146609;575;46014;-69
2023/10/19 05:01:39;;;;;;;;;5.00;4.00;;;;;16.93;84.83;101126.16;146608;632;46020;-66
2023/10/19 05:04:43;;;;;;;;;5.67;5.00;;;;;16.92;84.86;101127.88;146605;564;46016;-67
2023/10/19 05:07:38;;;;;;;;;8.00;6.00;;;;;16.89;84.78;101119.03;146614;581;45021;-66
2023/10/19 05:10:33;;;;;;;;;6.67;5.33;;;;;16.91;85.28;101123.47;146607;583;46016;-67
2023/10/19 05:13:52;;;;;;;;;5.67;3.00;;;;;16.89;85.00;101124.28;146609;600;46015;-67
2023/10/19 05:16:49;;;;;;;;;5.67;5.00;;;;;16.96;86.75;101128.87;146628;577;46016;-69
2023/10/19 05:19:47;;;;;;;;;4.00;4.00;;;;;17.63;90.19;101127.38;146629;626;45020;-66
2023/10/19 05:22:48;;;;;;;;;3.33;2.33;;;;;18.63;90.62;101121.37;146624;617;47014;-68
2023/10/19 05:25:44;;;;;;;;;9.00;9.00;;;;;19.69;81.86;101125.56;146624;709;46010;-71
2023/10/19 05:28:37;;;;;;;;;5.00;4.00;;;;;20.69;79.05;101134.47;146625;608;45916;-71
2023/10/19 05:31:53;;;;;;;;;3.00;1.67;;;;;21.73;72.76;101129.81;146629;586;46010;-72
2023/10/19 05:35:04;;;;;;;;;4.33;3.00;;;;;22.78;70.29;101135.31;146625;631;46016;-70
2023/10/19 05:38:00;;;;;;;;;5.33;4.00;;;;;23.65;62.92;101128.78;146619;703;47010;-71
2023/10/19 05:40:56;;;;;;;;;3.33;3.00;;;;;24.28;61.37;101129.88;146626;569;45033;-71
2023/10/19 05:43:53;;;;;;;;;5.33;3.00;;;;;24.78;59.58;101136.97;146629;566;45030;-71
2023/10/19 05:46:58;;;;;;;;;5.00;2.00;;;;;25.24;58.83;101134.31;146627;684;45016;-70
2023/10/19 05:49:51;;;;;;;;;3.00;3.00;;;;;25.80;56.29;101142.94;146630;570;45010;-71
2023/10/19 05:52:49;;;;;;;;;2.67;2.00;;;;;26.20;55.46;101135.66;146626;645;46012;-69
2023/10/19 05:55:44;;;;;;;;;4.00;4.00;;;;;26.55;54.33;101139.00;146624;614;46020;-68
2023/10/19 05:58:56;;;;;;;;;2.00;2.00;;;;;25.70;55.85;100953.53;146626;595;45017;-71
2023/10/19 06:01:54;;;;;;;;;2.00;2.00;;;;;26.87;52.55;101144.91;146629;644;45020;-71
2023/10/19 06:04:51;;;;;;;;;1.00;1.00;;;;;26.94;51.27;101153.69;146629;567;45932;-71
2023/10/19 06:07:56;;;;;;;;;3.00;3.00;;;;;26.88;54.35;101156.41;146627;573;46010;-71
2023/10/19 06:11:04;;;;;;;;;3.00;2.00;;;;;26.72;53.54;101158.34;146627;655;46016;-72
2023/10/19 06:14:17;;;;;;;;;3.00;3.00;;;;;26.45;52.63;101156.78;146630;585;45010;-71
2023/10/19 06:17:09;;;;;;;;;4.33;2.33;;;;;26.00;50.36;101159.69;146626;621;46014;-70
2023/10/19 06:20:07;;;;;;;;;4.00;3.00;;;;;25.42;51.94;101161.66;146627;608;46010;-70
2023/10/19 06:23:13;;;;;;;;;1.00;1.00;;;;;23.56;56.54;100972.59;146628;604;45916;-70
2023/10/19 06:26:28;;;;;;;;;3.00;2.33;;;;;22.85;59.12;100969.66;146632;569;45031;-70
2023/10/19 06:29:28;;;;;;;;;2.00;2.00;;;;;23.47;59.79;101166.63;146628;615;45914;-72
2023/10/19 06:32:26;;;;;;;;;4.00;3.00;;;;;23.16;61.05;101166.47;146627;608;46020;-71
2023/10/19 06:35:22;;;;;;;;;4.33;4.33;;;;;23.10;62.00;101177.00;146628;572;46013;-71
2023/10/19 06:38:14;;;;;;;;;5.33;4.33;;;;;23.14;62.36;101168.19;146629;575;45010;-71
2023/10/19 06:41:19;;;;;;;;;4.33;3.67;;;;;23.09;63.04;101166.41;146626;611;45016;-71
2023/10/19 06:44:11;;;;;;;;;5.00;3.00;;;;;22.95;61.76;101168.94;146631;617;45021;-71
2023/10/19 06:47:03;;;;;;;;;3.00;3.00;;;;;22.80;63.04;101170.56;146626;601;46012;-71
2023/10/19 06:50:10;;;;;;;;;;;;;;;;;;;;;
2023/10/19 06:53:15;;;;;;;;;4.00;4.00;;;;;22.42;64.03;101170.22;146614;576;48016;-70
2023/10/19 06:56:15;;;;;;;;;9.00;5.00;;;;;22.16;65.58;101177.88;146630;650;45014;-70
2023/10/19 06:59:08;;;;;;;;;4.33;3.00;;;;;21.88;64.71;101179.28;146624;623;47010;-70
2023/10/19 07:02:01;;;;;;;;;3.00;2.33;;;;;21.66;65.80;101176.37;146620;591;46010;-70
2023/10/19 07:04:57;;;;;;;;;4.33;4.33;;;;;21.49;67.00;101177.00;146626;570;45017;-70
2023/10/19 07:07:51;;;;;;;;;4.00;3.67;;;;;21.34;67.11;101175.91;146629;579;45020;-70
2023/10/19 07:10:45;;;;;;;;;6.67;6.33;;;;;21.18;67.21;101180.06;146628;572;45020;-70
2023/10/19 07:13:40;;;;;;;;;5.33;3.33;;;;;21.01;67.85;101178.91;146628;582;46020;-70
2023/10/19 07:16:36;;;;;;;;;4.00;4.00;;;;;20.83;67.73;101176.84;146628;587;45016;-70
2023/10/19 07:19:36;;;;;;;;;6.33;4.00;;;;;20.70;68.97;101174.88;146628;578;45045;-71
2023/10/19 07:22:37;;;;;;;;;5.00;4.67;;;;;20.61;69.53;101170.34;146626;569;45016;-70
2023/10/19 07:25:42;;;;;;;;;5.00;4.00;;;;;20.50;69.67;101170.13;146627;585;45029;-70
2023/10/19 07:28:34;;;;;;;;;5.33;4.00;;;;;20.45;69.89;101158.63;146625;590;46014;-70
2023/10/19 07:31:29;;;;;;;;;4.67;4.67;;;;;20.47;70.58;101158.66;146626;633;46010;-69
2023/10/19 07:34:27;;;;;;;;;1.00;1.00;;;;;20.52;69.90;101159.63;146624;589;46013;-70
2023/10/19 07:37:23;;;;;;;;;5.00;4.00;;;;;20.57;68.63;101165.87;146631;623;45010;-68
2023/10/19 07:40:24;;;;;;;;;7.00;6.00;;;;;20.74;69.11;101179.34;146625;580;45016;-69
2023/10/19 07:43:16;;;;;;;;;6.67;4.00;;;;;20.93;69.17;101185.78;146627;620;46020;-70
2023/10/19 07:46:12;;;;;;;;;2.00;2.00;;;;;21.03;65.22;101182.47;146625;661;46012;-69
2023/10/19 07:49:05;;;;;;;;;2.00;2.00;;;;;21.13;66.77;101184.38;146625;644;45021;-70
2023/10/19 07:52:07;;;;;;;;;2.00;2.00;;;;;21.30;67.98;101196.94;146618;680;47017;-70
2023/10/19 07:55:09;;;;;;;;;2.67;2.67;;;;;21.59;67.05;101193.00;146625;651;45915;-71
2023/10/19 07:58:07;;;;;;;;;2.00;2.00;;;;;22.00;66.74;101192.63;146627;569;45016;-70
2023/10/19 08:01:08;;;;;;;;;3.00;3.00;;;;;22.40;65.11;101198.41;146630;610;45943;-70
2023/10/19 08:04:06;;;;;;;;;1.33;1.33;;;;;22.65;64.60;101188.94;146622;674;47915;-70
2023/10/19 08:07:05;;;;;;;;;1.67;1.67;;;;;22.80;62.54;101199.66;146628;563;45021;-70
2023/10/19 08:10:10;;;;;;;;;2.67;1.67;;;;;23.05;64.14;101194.56;146625;606;46014;-70
2023/10/19 08:13:09;;;;;;;;;2.00;2.00;;;;;23.37;63.42;101194.81;146628;604;45011;-71
2023/10/19 08:16:02;;;;;;;;;2.67;2.33;;;;;23.57;63.01;101191.41;146603;592;47016;-69
2023/10/19 08:19:06;;;;;;;;;3.00;2.00;;;;;23.64;63.90;101177.31;146611;610;45031;-69
2023/10/19 08:22:14;;;;;;;;;;;;;;;;;;;;;
2023/10/19 08:25:18;;;;;;;;;2.00;1.33;;;;;23.85;61.57;101166.84;146610;631;46032;-71
2023/10/19 08:28:16;;;;;;;;;3.00;1.33;;;;;23.97;63.18;101174.81;146606;579;46916;-70
2023/10/19 08:31:14;;;;;;;;;2.67;2.00;;;;;24.07;61.55;101162.50;146608;563;46020;-70
2023/10/19 08:34:14;;;;;;;;;2.33;1.67;;;;;24.08;62.03;101179.28;146601;745;47016;-70
2023/10/19 08:37:23;;;;;;;;;1.00;1.00;;;;;24.04;59.79;101158.97;146611;681;45020;-70
2023/10/19 08:40:26;;;;;;;;;1.00;0.67;;;;;24.06;61.36;101151.91;146607;652;47015;-71
2023/10/19 08:43:28;;;;;;;;;2.00;2.00;;;;;24.13;61.33;101156.34;146611;583;45020;-70
2023/10/19 08:46:33;;;;;;;;;1.67;1.67;;;;;24.06;60.81;101163.38;146606;616;46016;-70
2023/10/19 08:49:26;;;;;;;;;1.00;1.00;;;;;23.92;60.63;101158.03;146608;716;46021;-71
2023/10/19 08:52:26;;;;;;;;;3.00;3.00;;;;;23.85;62.61;101158.91;146606;624;46016;-70
2023/10/19 08:55:24;;;;;;;;;0.67;0.67;;;;;23.86;61.71;101165.97;146607;571;47020;-70
2023/10/19 08:58:32;;;;;;;;;1.00;1.00;;;;;23.87;62.58;101165.09;146608;692;46016;-69
2023/10/19 09:01:30;;;;;;;;;2.67;2.33;;;;;23.89;62.54;101162.44;146605;631;47020;-70
2023/10/19 09:04:32;;;;;;;;;0.33;0.00;;;;;23.92;61.67;101165.09;146607;570;46014;-71
2023/10/19 09:07:40;;;;;;;;;;;;;;;;;;;;;
2023/10/19 09:10:37;;;;;;;;;2.00;2.00;;;;;23.86;61.00;101171.28;146602;648;48012;-71
2023/10/19 09:13:57;;;;;;;;;1.33;1.33;;;;;23.87;63.71;101173.03;146607;584;46025;-71
2023/10/19 09:17:00;;;;;;;;;2.00;2.00;;;;;23.85;63.09;101174.78;146604;578;46915;-70
2023/10/19 09:19:53;;;;;;;;;1.00;1.00;;;;;23.85;61.10;101172.13;146607;564;46020;-70
2023/10/19 09:22:59;;;;;;;;;1.33;1.33;;;;;23.88;61.49;101158.03;146607;598;46012;-71
2023/10/19 09:25:58;;;;;;;;;2.00;1.00;;;;;23.91;61.82;101143.03;146608;582;47020;-71
2023/10/19 09:29:30;;;;;;;;;3.00;2.00;;;;;22.81;60.48;100952.91;146608;747;46012;-70
2023/10/19 09:32:42;;;;;;;;;2.00;1.00;;;;;22.86;61.82;100955.53;146606;564;46020;-70
2023/10/19 09:35:43;;;;;;;;;2.33;1.00;;;;;23.98;58.16;101138.63;146606;571;46028;-72
2023/10/19 09:38:48;;;;;;;;;;;;;;;;;;;;;
2023/10/19 09:41:48;;;;;;;;;1.00;0.00;;;;;24.17;56.93;101151.06;146605;652;46016;-71
2023/10/19 09:44:55;;;;;;;;;1.67;1.00;;;;;24.16;58.63;101140.44;146607;572;47010;-69
2023/10/19 09:48:15;;;;;;;;;;;;;;;;;;;;;
2023/10/19 09:51:10;;;;;;;;;1.00;1.00;;;;;24.37;56.03;101144.91;146606;576;47010;-71
2023/10/19 09:54:35;;;;;;;;;0.00;0.00;;;;;24.54;58.43;101144.94;146607;657;46012;-71
2023/10/19 09:57:51;;;;;;;;;1.00;1.00;;;;;24.70;59.92;101149.34;146610;687;46020;-70
2023/10/19 10:00:57;;;;;;;;;0.00;0.00;;;;;24.78;59.56;101147.59;146605;572;46016;-70
2023/10/19 10:03:59;;;;;;;;;2.00;2.00;;;;;24.85;57.06;101144.03;146608;590;46014;-70
2023/10/19 10:07:15;;;;;;;;;2.00;1.00;;;;;23.80;58.30;100966.44;146605;704;46016;-71
2023/10/19 10:10:28;;;;;;;;;1.00;1.00;;;;;23.94;58.48;100967.34;146609;628;46012;-70
2023/10/19 10:13:51;;;;;;;;;1.00;1.00;;;;;23.93;54.52;100949.72;146603;594;47018;-71
2023/10/19 10:16:48;;;;;;;;;1.67;0.33;;;;;25.04;55.73;101128.09;146628;636;45021;-69
2023/10/19 10:19:42;;;;;;;;;2.00;1.00;;;;;25.13;55.81;101120.16;146628;582;46012;-70
2023/10/19 10:22:46;;;;;;;;;0.00;0.00;;;;;25.16;54.76;101122.81;146625;579;45020;-72
2023/10/19 10:25:45;;;;;;;;;1.00;1.00;;;;;25.17;54.81;101116.62;146626;566;45016;-71
2023/10/19 10:29:27;;;;;;;;;1.00;1.00;;;;;24.04;56.98;100913.47;146627;589;45020;-71
2023/10/19 10:33:00;;;;;;;;;1.33;1.33;;;;;25.18;59.43;101091.84;146628;615;46013;-70
2023/10/19 10:36:01;;;;;;;;;1.67;1.00;;;;;25.25;54.56;101090.94;146626;647;45020;-71
2023/10/19 10:39:14;;;;;;;;;2.67;1.33;;;;;25.24;53.46;101086.53;146628;617;46013;-71
2023/10/19 10:42:20;;;;;;;;;2.00;2.00;;;;;25.19;53.32;101077.69;146627;705;46010;-71
2023/10/19 10:45:27;;;;;;;;;1.00;1.00;;;;;25.13;56.31;101064.44;146624;583;45024;-71
2023/10/19 10:48:22;;;;;;;;;3.33;2.33;;;;;25.17;54.27;101074.19;146629;604;45034;-71
2023/10/19 10:51:28;;;;;;;;;4.33;4.33;;;;;25.21;53.12;101064.44;146624;729;46016;-71
2023/10/19 10:54:28;;;;;;;;;2.00;2.00;;;;;25.07;55.42;101062.66;146625;632;46021;-70
2023/10/19 10:57:30;;;;;;;;;3.00;2.00;;;;;25.03;53.69;101057.37;146628;620;46012;-71
2023/10/19 11:00:33;;;;;;;;;5.00;4.67;;;;;24.88;52.70;101055.62;146630;620;45020;-72
2023/10/19 11:03:46;;;;;;;;;6.33;6.00;;;;;24.51;53.47;101050.37;146625;593;45016;-71
2023/10/19 11:07:24;;;;;;;;;15.67;12.67;;;;;23.04;57.42;100846.34;146620;592;46020;-71
2023/10/19 11:10:17;;;;;;;;;6.00;4.00;;;;;24.19;56.36;101053.87;146624;585;45016;-71
2023/10/19 11:13:17;;;;;;;;;13.67;10.00;;;;;24.37;57.40;101038.88;146627;551;45020;-71
2023/10/19 11:16:13;;;;;;;;;1.00;1.00;;;;;24.60;57.82;101039.78;146609;685;46013;-71
2023/10/19 11:19:11;;;;;;;;;2.33;1.33;;;;;24.85;56.35;101032.66;146609;670;46020;-71
2023/10/19 11:22:05;;;;;;;;;2.00;2.00;;;;;25.00;54.07;101025.53;146606;644;46016;-70
2023/10/19 11:25:23;;;;;;;;;2.00;2.00;;;;;25.08;53.83;101021.09;146607;574;47021;-70
2023/10/19 11:28:44;;;;;;;;;2.00;2.00;;;;;25.13;54.62;101024.63;146603;608;46018;-70
2023/10/19 11:32:00;;;;;;;;;1.00;1.00;;;;;25.15;56.70;101022.88;146609;610;46014;-70
2023/10/19 11:35:13;;;;;;;;;1.33;1.33;;;;;24.09;56.06;100837.53;146604;584;47913;-69
2023/10/19 11:38:10;;;;;;;;;0.00;0.00;;;;;25.20;53.92;101026.38;146606;686;47021;-70
2023/10/19 11:41:05;;;;;;;;;1.00;1.00;;;;;25.18;54.54;101024.63;146607;641;46012;-70
2023/10/19 11:44:08;;;;;;;;;0.00;0.00;;;;;25.21;56.85;101022.84;146610;573;46010;-71
2023/10/19 11:47:03;;;;;;;;;0.33;0.33;;;;;25.22;55.74;101024.59;146606;579;46017;-69
2023/10/19 11:49:57;;;;;;;;;1.33;1.33;;;;;25.25;53.57;101018.41;146609;599;46010;-70
2023/10/19 11:53:07;;;;;;;;;4.00;2.00;;;;;25.30;56.69;101019.28;146605;615;47017;-70
2023/10/19 11:56:12;;;;;;;;;2.00;2.00;;;;;25.18;53.19;101014.03;146609;569;46020;-71
2023/10/19 11:59:15;;;;;;;;;2.67;2.67;;;;;25.04;53.81;101012.25;146606;566;46012;-72
2023/10/19 12:02:09;;;;;;;;;3.00;2.00;;;;;24.95;54.55;101020.22;146606;652;46010;-70
2023/10/19 12:05:17;;;;;;;;;1.33;1.33;;;;;24.92;54.39;101016.72;146606;604;46016;-70
2023/10/19 12:08:13;;;;;;;;;3.00;2.00;;;;;25.00;53.71;101017.59;146606;630;47010;-70
2023/10/19 12:11:19;;;;;;;;;3.00;2.00;;;;;24.55;58.11;100935.53;146605;595;47913;-70
2023/10/19 12:14:21;;;;;;;;;1.00;1.00;;;;;25.01;56.41;101017.56;146608;601;46020;-70
2023/10/19 12:17:18;;;;;;;;;2.00;1.67;;;;;25.01;54.93;101016.69;146606;591;46016;-70
2023/10/19 12:20:21;;;;;;;;;3.00;3.00;;;;;25.01;54.82;101008.72;146607;609;46020;-72
2023/10/19 12:23:22;;;;;;;;;2.00;1.00;;;;;25.09;55.56;101009.59;146605;564;46017;-71
2023/10/19 12:26:19;;;;;;;;;1.00;1.00;;;;;25.09;54.24;101012.25;146609;596;46010;-70
2023/10/19 12:29:17;;;;;;;;;2.67;2.67;;;;;25.10;53.93;101001.59;146605;625;47015;-71
2023/10/19 12:32:14;;;;;;;;;1.00;1.00;;;;;25.15;54.12;101003.41;146608;628;47014;-71
2023/10/19 12:35:23;;;;;;;;;2.00;2.00;;;;;25.27;56.31;100998.94;146605;682;47010;-70
2023/10/19 12:38:27;;;;;;;;;3.00;2.33;;;;;25.36;53.63;100992.69;146605;615;47010;-70
2023/10/19 12:41:29;;;;;;;;;2.33;2.33;;;;;25.42;50.18;100987.38;146607;569;47014;-71
2023/10/19 12:44:22;;;;;;;;;4.33;2.33;;;;;25.17;50.42;100983.03;146607;704;46021;-71
2023/10/19 12:47:17;;;;;;;;;2.00;2.00;;;;;24.98;53.11;100982.22;146607;680;46012;-71
2023/10/19 12:50:12;;;;;;;;;3.00;2.00;;;;;24.94;53.33;100975.16;146610;601;46020;-71
2023/10/19 12:53:13;;;;;;;;;3.00;3.00;;;;;24.89;52.25;100983.13;146607;610;46017;-71
2023/10/19 12:56:11;;;;;;;;;3.00;2.00;;;;;24.80;50.88;100972.56;146609;589;46010;-71
2023/10/19 12:59:15;;;;;;;;;2.00;2.00;;;;;24.70;52.14;100966.38;146605;649;46034;-72
2023/10/19 13:02:20;;;;;;;;;3.33;2.00;;;;;24.73;53.40;100970.81;146610;719;46020;-70
2023/10/19 13:05:18;;;;;;;;;2.00;2.00;;;;;24.64;52.61;100967.31;146603;738;48014;-71
2023/10/19 13:08:27;;;;;;;;;3.00;2.00;;;;;24.13;54.45;100894.94;146606;588;45021;-71
2023/10/19 13:11:38;;;;;;;;;2.33;2.33;;;;;24.71;55.29;100964.62;146606;592;46915;-70
2023/10/19 13:14:49;;;;;;;;;3.00;3.00;;;;;24.83;53.45;100961.94;146609;645;46010;-71
2023/10/19 13:17:52;;;;;;;;;2.00;2.00;;;;;24.94;54.15;100960.13;146604;626;47014;-71
2023/10/19 13:20:48;;;;;;;;;1.00;1.00;;;;;25.02;52.37;100957.44;146610;666;45021;-71
2023/10/19 13:23:45;;;;;;;;;2.00;2.00;;;;;25.03;52.60;100951.25;146606;591;46037;-71
2023/10/19 13:26:40;;;;;;;;;2.67;2.67;;;;;25.03;51.46;100946.81;146609;585;47010;-71
2023/10/19 13:29:47;;;;;;;;;;;;;;;;;;;;;
2023/10/19 13:32:51;;;;;;;;;3.00;3.00;;;;;24.91;52.74;100951.28;146607;631;46010;-71
2023/10/19 13:35:55;;;;;;;;;1.67;1.00;;;;;24.84;51.98;100938.06;146607;642;46016;-72
2023/10/19 13:38:58;;;;;;;;;3.00;3.00;;;;;24.65;52.27;100939.03;146609;576;46035;-69
2023/10/19 13:41:52;;;;;;;;;3.00;3.00;;;;;24.48;53.82;100943.47;146608;570;45035;-71
2023/10/19 13:44:49;;;;;;;;;2.00;2.00;;;;;24.36;52.67;100941.69;146611;572;46011;-72
2023/10/19 13:47:45;;;;;;;;;2.00;2.00;;;;;24.27;55.07;100939.06;146603;609;48915;-69
2023/10/19 13:50:59;;;;;;;;;3.00;3.00;;;;;24.21;56.67;100939.97;146610;661;46020;-70
2023/10/19 13:54:01;;;;;;;;;2.00;2.00;;;;;24.20;54.74;100940.84;146607;685;46019;-70
2023/10/19 13:56:56;;;;;;;;;4.33;2.00;;;;;24.19;55.24;100941.72;146612;617;46010;-70
2023/10/19 13:59:51;;;;;;;;;3.00;2.00;;;;;24.16;54.17;100942.63;146607;579;46025;-71
2023/10/19 14:02:46;;;;;;;;;2.00;2.00;;;;;24.06;55.73;100932.03;146609;582;46020;-71
2023/10/19 14:05:56;;;;;;;;;2.00;2.00;;;;;23.89;56.38;100927.59;146604;572;46916;-71
2023/10/19 14:09:14;;;;;;;;;2.00;2.00;;;;;23.72;57.20;100921.44;146605;677;46020;-72
2023/10/19 14:12:20;;;;;;;;;3.33;2.67;;;;;23.59;56.66;100924.94;146604;565;47012;-69
2023/10/19 14:15:24;;;;;;;;;2.00;2.00;;;;;23.42;56.30;100917.84;146606;598;46010;-72
2023/10/19 14:18:26;;;;;;;;;2.00;2.00;;;;;23.17;56.73;100924.84;146605;649;47012;-72
2023/10/19 14:21:37;;;;;;;;;2.00;2.00;;;;;23.00;58.34;100919.50;146608;586;46015;-72
2023/10/19 14:24:44;;;;;;;;;4.00;2.00;;;;;22.88;57.28;100918.56;146604;596;47915;-72
2023/10/19 14:27:47;;;;;;;;;3.33;2.67;;;;;22.83;58.17;100915.88;146608;602;46020;-71
2023/10/19 14:30:47;;;;;;;;;2.00;2.00;;;;;22.84;58.57;100915.03;146605;625;46012;-71
2023/10/19 14:34:04;;;;;;;;;0.00;0.00;;;;;22.85;58.58;100906.19;146602;590;47010;-71